الصفحة الرئيسية
METAR-TAF:

METAR-TAF

مطار :

ناتال, ريو غراندي دو نورتي, البرازيل

دائرة عرض: 05-46-05S, خط طول: 035-22-34W, ارتفاع: 88 متر

مراقبة الطقس الحالي

تاريخ ووقت الإصدار 36 دقيقة قبل الساعة 09:00UTC
ريح 4 عقدة من الغرب/الجنوب الغربي
درجة الحرارة 19°درجة مئوية
الرطوبة 94%
ضغط 1017 hPa
الرؤية 10 كم أو أكثر
غيوم قليلة على ارتفاع 2300 قدم

METAR: SBSG 170900Z 24004KT 9999 FEW023 19/18 Q1017

زمن: 06:36 (09:36 UTC)

توقعات

تاريخ ووقت الإصدار 7ساعات و 36 دقيقة قبل الساعة 02:00UTC
التوقعات صالحة من17 الساعة 06 UTC إلى 18 الساعة 06 UTC
ريح 5 عقدة من الجنوب الغربي
الرؤية: 8000 متر
غيوم متفرقة على ارتفاع 2000 قدم
أصبح
من 17 الساعة 10 UTC إلى 17 الساعة 12 UTC
ريح 9 عقدة من الجنوب
أصبح
من 18 الساعة 00 UTC إلى 18 الساعة 02 UTC
ريح 5 عقدة من الجنوب الغربي

TAF: SBSG 170200Z 1706/1806 22005KT 8000 SCT020 TN20/1709Z TX28/1716Z BECMG 1710/1712 17009KT BECMG 1800/1802 22005KT RMK PEA

أرصاد الطقس والتوقعات من أكثر من 4000 مطار (تقارير الطقس للمطار METAR والتنبؤ بالطقس بالمطارTAF).

المحطات المتاحة هي النقط الصفراء والحمراء على الخريطة.

حرك المؤشر فوق النقطة لمعرفة اسم المحطة.

ثم انقر لمعرفة أرصاد وتوقعات الطقس.

لتغيير الخارطة: اضغط على الأزرار الخضراء مع رمز الصليب الأسود للتكبير. على الزر الأخضر مع شرطة للتصغير، أو على الأسهم الخضراء للخرائط المجاورة.


METAR-TAF: